Maldives Meteorological Service

TAFS

Station TAF
VRMM
VRMM 111100Z 1112/1218 09005KT 9999 FEW019 TEMPO 1117/1122 FEW020CB=
VRMH
VRMH 111100Z 1112/1212 07005KT 9999 FEW019 TEMPO 1115/1120 FEW020CB=
VRMK
VRMK 111100Z 1112/1212 09004KT 9999 FEW019=
VRMT
VRMT 111100Z 1112/1212 09003KT 9999 FEW019=
VRMG
VRMG 111100Z 1112/1218 09004KT 9999 FEW019=